createdAt,value
2022-10-31T00:02:28.862Z,18.56
2022-10-31T00:05:38.933Z,18.76
2022-10-31T00:08:49.146Z,18.58
2022-10-31T00:11:57.390Z,18.55
2022-10-31T00:15:03.097Z,18.72
2022-10-31T00:18:09.689Z,18.79
2022-10-31T00:21:13.960Z,18.77
2022-10-31T00:24:18.345Z,18.89
2022-10-31T00:27:22.622Z,18.71
2022-10-31T00:30:28.359Z,18.66
2022-10-31T00:33:32.935Z,18.57
2022-10-31T00:36:36.965Z,18.67
2022-10-31T00:39:41.285Z,18.99
2022-10-31T00:42:45.519Z,18.90
2022-10-31T00:45:51.191Z,18.95
2022-10-31T00:48:55.204Z,19.04
2022-10-31T00:51:59.309Z,19.21
2022-10-31T00:55:03.551Z,19.24
2022-10-31T00:58:08.104Z,19.33
2022-10-31T01:01:13.857Z,19.29
2022-10-31T01:04:18.618Z,19.22
2022-10-31T01:07:22.835Z,19.35
2022-10-31T01:10:26.965Z,19.26
2022-10-31T01:13:31.387Z,19.29
2022-10-31T01:16:36.915Z,19.42
2022-10-31T01:19:41.381Z,19.33
2022-10-31T01:22:45.388Z,19.26
2022-10-31T01:25:49.449Z,19.31
2022-10-31T01:28:55.784Z,19.36
2022-10-31T01:32:01.440Z,19.44
2022-10-31T01:35:05.874Z,19.39
2022-10-31T01:38:10.304Z,19.41
2022-10-31T01:41:16.308Z,19.42
2022-10-31T01:44:54.247Z,19.38
2022-10-31T01:48:00.196Z,19.50
2022-10-31T01:51:06.240Z,19.55
2022-10-31T01:54:14.229Z,19.49
2022-10-31T01:57:20.696Z,19.38
2022-10-31T02:00:25.345Z,19.43
2022-10-31T02:03:32.170Z,19.38
2022-10-31T02:06:40.418Z,19.49
2022-10-31T02:09:45.834Z,19.53
2022-10-31T02:12:50.385Z,19.52
2022-10-31T02:15:57.838Z,19.48
2022-10-31T02:19:03.979Z,19.56
2022-10-31T02:22:16.098Z,19.68
2022-10-31T02:25:39.969Z,19.59
2022-10-31T02:29:03.998Z,19.64
2022-10-31T02:32:16.810Z,19.59
2022-10-31T02:35:33.436Z,19.49
2022-10-31T02:38:47.141Z,19.43
2022-10-31T02:42:06.789Z,19.62
2022-10-31T02:45:16.393Z,19.68
2022-10-31T02:48:29.281Z,19.65
2022-10-31T02:51:33.865Z,19.58
2022-10-31T02:54:38.166Z,19.67
2022-10-31T02:57:44.910Z,19.68
2022-10-31T03:01:01.571Z,19.70
2022-10-31T03:04:28.617Z,19.73
2022-10-31T03:07:41.869Z,19.87
2022-10-31T03:10:50.476Z,19.74
2022-10-31T03:14:03.657Z,19.81
2022-10-31T03:17:15.696Z,20.01
2022-10-31T03:20:24.887Z,19.92
2022-10-31T03:23:31.137Z,19.98
2022-10-31T03:26:38.479Z,19.97
2022-10-31T03:29:45.103Z,20.16
2022-10-31T03:32:52.858Z,20.23
2022-10-31T03:36:05.479Z,20.13
2022-10-31T03:39:13.616Z,20.14
2022-10-31T03:42:21.266Z,20.25
2022-10-31T03:45:28.830Z,20.28
2022-10-31T03:48:34.258Z,20.21
2022-10-31T03:51:46.392Z,20.06
2022-10-31T03:54:57.486Z,19.99
2022-10-31T03:58:05.541Z,20.00
2022-10-31T04:01:14.267Z,20.00
2022-10-31T04:04:19.375Z,19.94
2022-10-31T04:07:29.867Z,19.85
2022-10-31T04:10:35.722Z,19.84
2022-10-31T04:13:42.146Z,19.83
2022-10-31T04:16:50.968Z,19.82
2022-10-31T04:20:02.593Z,19.76
2022-10-31T04:23:21.177Z,19.65
2022-10-31T04:26:26.329Z,19.90
2022-10-31T04:29:30.599Z,19.90
2022-10-31T04:32:35.416Z,19.72
2022-10-31T04:35:39.622Z,19.68
2022-10-31T04:38:45.477Z,19.61
2022-10-31T04:42:15.585Z,19.57
2022-10-31T04:45:21.287Z,19.54
2022-10-31T04:48:29.102Z,19.52
2022-10-31T04:51:33.534Z,19.55
2022-10-31T04:54:39.545Z,19.57
2022-10-31T04:58:13.093Z,19.56
2022-10-31T05:01:17.640Z,19.54
2022-10-31T05:04:22.680Z,19.61
2022-10-31T05:07:27.247Z,19.44
2022-10-31T05:10:36.950Z,19.60
2022-10-31T05:13:41.792Z,19.51
2022-10-31T05:16:57.296Z,19.56
2022-10-31T05:20:27.162Z,19.49
2022-10-31T05:23:47.462Z,19.56
2022-10-31T05:26:56.106Z,19.63
2022-10-31T05:33:09.892Z,19.40
2022-10-31T05:36:35.148Z,19.41
2022-10-31T05:39:49.794Z,19.59
2022-10-31T05:43:00.133Z,19.73
2022-10-31T05:46:04.705Z,19.64
2022-10-31T05:49:27.351Z,19.74
2022-10-31T05:53:11.412Z,19.79
2022-10-31T05:56:17.377Z,19.72
2022-10-31T05:59:23.176Z,19.77
2022-10-31T06:02:28.166Z,19.76
2022-10-31T06:06:00.457Z,19.75
2022-10-31T06:09:14.809Z,19.64
2022-10-31T06:12:22.199Z,19.76
2022-10-31T06:15:48.197Z,19.83
2022-10-31T06:19:04.336Z,19.94
2022-10-31T06:22:12.780Z,19.98
2022-10-31T06:25:17.164Z,20.01
2022-10-31T06:28:26.550Z,20.69
2022-10-31T06:31:41.606Z,21.25
2022-10-31T06:34:49.523Z,21.63
2022-10-31T06:37:54.901Z,22.12
2022-10-31T06:41:16.191Z,22.65
2022-10-31T06:44:26.535Z,23.06
2022-10-31T06:47:56.704Z,23.40
2022-10-31T06:51:06.620Z,23.63
2022-10-31T06:54:10.927Z,23.47
2022-10-31T06:57:24.199Z,23.86
2022-10-31T07:00:30.096Z,23.73
2022-10-31T07:03:43.156Z,24.06
2022-10-31T07:06:51.749Z,23.98
2022-10-31T07:09:59.313Z,24.11
2022-10-31T07:13:19.770Z,23.92
2022-10-31T07:16:30.648Z,23.74
2022-10-31T07:19:36.539Z,23.75
2022-10-31T07:22:41.046Z,23.90
2022-10-31T07:25:48.191Z,24.44
2022-10-31T07:28:56.952Z,24.08
2022-10-31T07:32:03.146Z,24.32
2022-10-31T07:35:11.066Z,24.88
2022-10-31T07:38:24.813Z,24.95
2022-10-31T07:41:31.372Z,25.42
2022-10-31T07:44:41.462Z,25.41
2022-10-31T07:48:10.823Z,25.68
2022-10-31T07:51:34.632Z,25.94
2022-10-31T07:54:59.215Z,26.11
2022-10-31T07:58:07.689Z,26.57
2022-10-31T08:01:16.107Z,26.75
2022-10-31T08:04:31.737Z,26.43
2022-10-31T08:07:56.264Z,26.36
2022-10-31T08:11:03.027Z,26.62
2022-10-31T08:14:08.992Z,26.59
2022-10-31T08:17:28.862Z,26.35
2022-10-31T08:20:43.380Z,26.86
2022-10-31T08:23:49.392Z,26.98
2022-10-31T08:26:56.558Z,26.83
2022-10-31T08:30:02.034Z,27.34
2022-10-31T08:33:10.774Z,27.85
2022-10-31T08:36:35.945Z,27.97
2022-10-31T08:39:52.302Z,28.39
2022-10-31T08:43:00.456Z,28.16
2022-10-31T08:46:08.409Z,28.58
2022-10-31T08:49:13.764Z,28.87
2022-10-31T08:52:23.441Z,29.10
2022-10-31T08:55:41.243Z,28.87
2022-10-31T08:59:04.200Z,29.32
2022-10-31T09:02:30.367Z,29.10
2022-10-31T09:05:37.823Z,28.70
2022-10-31T09:08:49.504Z,28.73
2022-10-31T09:11:56.399Z,28.79
2022-10-31T09:15:21.840Z,29.20
2022-10-31T09:18:49.023Z,28.45
2022-10-31T09:21:56.470Z,28.59
2022-10-31T09:25:00.853Z,28.88
2022-10-31T09:28:08.417Z,28.82
2022-10-31T09:31:13.019Z,29.10
2022-10-31T09:34:26.269Z,29.00
2022-10-31T09:38:00.531Z,29.45
2022-10-31T09:41:19.153Z,29.73
2022-10-31T09:44:33.559Z,29.52
2022-10-31T09:47:51.291Z,29.48
2022-10-31T09:51:31.568Z,29.41
2022-10-31T09:54:51.777Z,29.69
2022-10-31T09:57:57.129Z,30.01
2022-10-31T10:01:05.789Z,30.11
2022-10-31T10:04:25.866Z,30.36
2022-10-31T10:07:44.999Z,30.54
2022-10-31T10:11:27.322Z,29.92
2022-10-31T10:15:03.078Z,29.67
2022-10-31T10:18:18.157Z,29.64
2022-10-31T10:21:32.549Z,29.65
2022-10-31T10:24:56.416Z,30.01
2022-10-31T10:28:11.119Z,30.05
2022-10-31T10:31:18.253Z,30.30
2022-10-31T10:34:28.883Z,30.61
2022-10-31T10:37:38.768Z,30.56
2022-10-31T10:40:43.728Z,30.58
2022-10-31T10:43:48.154Z,30.69
2022-10-31T10:47:17.521Z,29.80
2022-10-31T10:50:26.888Z,30.02
2022-10-31T10:54:03.233Z,29.94
2022-10-31T10:57:26.780Z,30.43
2022-10-31T11:00:34.347Z,30.64
2022-10-31T11:03:39.065Z,30.43
2022-10-31T11:06:44.742Z,30.67
2022-10-31T11:09:49.472Z,30.77
2022-10-31T11:13:20.639Z,30.73
2022-10-31T11:16:36.768Z,30.77
2022-10-31T11:19:43.939Z,30.84
2022-10-31T11:22:51.741Z,29.88
2022-10-31T11:25:59.038Z,29.65
2022-10-31T11:29:04.501Z,29.31
2022-10-31T11:32:19.612Z,29.34
2022-10-31T11:35:26.760Z,29.56
2022-10-31T11:38:37.841Z,29.96
2022-10-31T11:41:43.588Z,29.17
2022-10-31T11:44:47.783Z,28.73
2022-10-31T11:47:58.207Z,28.87
2022-10-31T11:51:04.102Z,28.59
2022-10-31T11:54:23.925Z,28.35
2022-10-31T11:57:31.501Z,28.80
2022-10-31T12:00:42.171Z,29.08
2022-10-31T12:03:57.602Z,29.40
2022-10-31T12:07:02.141Z,29.94
2022-10-31T12:10:13.872Z,29.93
2022-10-31T12:13:34.093Z,29.90
2022-10-31T12:16:45.151Z,29.80
2022-10-31T12:20:00.731Z,29.64
2022-10-31T12:23:10.969Z,29.86
2022-10-31T12:26:24.115Z,30.20
2022-10-31T12:29:44.320Z,30.13
2022-10-31T12:33:15.909Z,29.68
2022-10-31T12:36:35.632Z,29.53
2022-10-31T12:39:49.399Z,29.77
2022-10-31T12:43:08.003Z,29.51
2022-10-31T12:46:21.438Z,29.55
2022-10-31T12:49:49.043Z,29.61
2022-10-31T12:53:06.508Z,29.31
2022-10-31T12:56:25.143Z,29.23
2022-10-31T12:59:36.713Z,29.22
2022-10-31T13:02:45.527Z,28.75
2022-10-31T13:05:54.485Z,28.31
2022-10-31T13:09:02.996Z,28.33
2022-10-31T13:12:12.612Z,28.51
2022-10-31T13:15:21.719Z,28.80
2022-10-31T13:18:30.659Z,29.11
2022-10-31T13:21:40.346Z,28.95
2022-10-31T13:24:55.439Z,29.23
2022-10-31T13:28:04.453Z,29.12
2022-10-31T13:31:10.883Z,29.30
2022-10-31T13:34:26.202Z,29.17
2022-10-31T13:37:37.049Z,29.31
2022-10-31T13:40:48.591Z,29.18
2022-10-31T13:44:02.692Z,28.86
2022-10-31T13:47:28.872Z,28.33
2022-10-31T13:50:34.448Z,28.58
2022-10-31T13:53:41.129Z,28.37
2022-10-31T13:56:51.074Z,28.10
2022-10-31T13:59:57.803Z,27.76
2022-10-31T14:03:03.931Z,27.56
2022-10-31T14:06:11.042Z,27.39
2022-10-31T14:09:33.808Z,27.53
2022-10-31T14:12:42.456Z,27.65
2022-10-31T14:15:57.260Z,27.62
2022-10-31T14:19:07.353Z,27.68
2022-10-31T14:22:22.729Z,27.51
2022-10-31T14:25:37.993Z,27.51
2022-10-31T14:28:42.093Z,27.02
2022-10-31T14:31:48.333Z,27.01
2022-10-31T14:34:59.901Z,26.99
2022-10-31T14:38:29.072Z,26.95
2022-10-31T14:41:48.481Z,26.78
2022-10-31T14:45:16.021Z,26.74
2022-10-31T14:48:52.541Z,26.62
2022-10-31T14:52:00.393Z,26.67
2022-10-31T14:55:09.791Z,26.55
2022-10-31T14:58:21.879Z,26.63
2022-10-31T15:01:30.303Z,26.51
2022-10-31T15:04:35.043Z,26.47
2022-10-31T15:07:53.378Z,26.46
2022-10-31T15:10:57.623Z,26.26
2022-10-31T15:14:02.294Z,26.24
2022-10-31T15:17:06.691Z,26.21
2022-10-31T15:20:14.050Z,26.22
2022-10-31T15:23:24.254Z,26.17
2022-10-31T15:26:35.092Z,25.83
2022-10-31T15:29:39.591Z,25.87
2022-10-31T15:32:57.391Z,25.74
2022-10-31T15:36:04.303Z,25.72
2022-10-31T15:39:13.779Z,25.70
2022-10-31T15:42:23.253Z,25.70
2022-10-31T15:45:29.420Z,25.73
2022-10-31T15:48:35.908Z,25.63
2022-10-31T15:51:40.609Z,25.59
2022-10-31T15:54:49.952Z,25.58
2022-10-31T15:57:56.029Z,25.65
2022-10-31T16:01:02.179Z,25.57
2022-10-31T16:04:21.539Z,25.62
2022-10-31T16:07:26.739Z,25.39
2022-10-31T16:10:36.502Z,25.17
2022-10-31T16:13:44.692Z,25.16
2022-10-31T16:16:53.572Z,25.25
2022-10-31T16:20:01.002Z,25.20
2022-10-31T16:23:05.522Z,25.21
2022-10-31T16:26:11.801Z,25.17
2022-10-31T16:29:28.929Z,25.16
2022-10-31T16:32:38.330Z,25.08
2022-10-31T16:35:42.413Z,25.12
2022-10-31T16:38:47.363Z,24.93
2022-10-31T16:41:54.807Z,24.98
2022-10-31T16:44:59.040Z,24.94
2022-10-31T16:48:07.673Z,24.87
2022-10-31T16:51:12.076Z,24.87
2022-10-31T16:54:16.191Z,24.81
2022-10-31T16:57:28.949Z,24.68
2022-10-31T17:00:33.324Z,24.65
2022-10-31T17:03:38.193Z,24.62
2022-10-31T17:06:42.383Z,24.56
2022-10-31T17:09:46.631Z,24.50
2022-10-31T17:12:53.110Z,24.49
2022-10-31T17:15:59.412Z,24.51
2022-10-31T17:19:03.473Z,24.54
2022-10-31T17:22:07.897Z,24.46
2022-10-31T17:25:16.979Z,24.37
2022-10-31T17:28:22.669Z,24.36
2022-10-31T17:31:32.340Z,24.14
2022-10-31T17:34:36.800Z,24.09
2022-10-31T17:37:43.072Z,23.93
2022-10-31T17:43:56.859Z,23.76
2022-10-31T17:47:01.022Z,23.75
2022-10-31T17:50:05.429Z,23.76
2022-10-31T17:53:09.553Z,23.75
2022-10-31T17:56:14.033Z,23.78
2022-10-31T17:59:19.862Z,23.86
2022-10-31T18:02:24.441Z,23.83
2022-10-31T18:05:28.772Z,23.78
2022-10-31T18:08:35.418Z,23.64
2022-10-31T18:11:39.679Z,23.57
2022-10-31T18:14:48.431Z,23.54
2022-10-31T18:17:52.869Z,23.61
2022-10-31T18:20:59.629Z,23.52
2022-10-31T18:24:04.433Z,23.36
2022-10-31T18:27:11.838Z,23.43
2022-10-31T18:30:18.378Z,23.38
2022-10-31T18:33:22.685Z,23.32
2022-10-31T18:36:27.359Z,23.11
2022-10-31T18:39:31.648Z,23.02
2022-10-31T18:42:35.867Z,23.00
2022-10-31T18:48:53.693Z,23.05
2022-10-31T18:51:58.035Z,22.99
2022-10-31T18:55:02.188Z,22.97
2022-10-31T18:58:06.357Z,22.87
2022-10-31T19:01:13.848Z,22.93
2022-10-31T19:04:18.099Z,22.91
2022-10-31T19:07:23.444Z,22.87
2022-10-31T19:10:29.809Z,22.80
2022-10-31T19:13:37.093Z,22.90
2022-10-31T19:16:44.596Z,22.95
2022-10-31T19:19:48.928Z,22.98
2022-10-31T19:22:53.396Z,22.84
2022-10-31T19:26:00.668Z,22.81
2022-10-31T19:29:08.215Z,22.80
2022-10-31T19:32:14.110Z,22.85
2022-10-31T19:35:18.736Z,22.68
2022-10-31T19:38:22.905Z,22.61
2022-10-31T19:41:28.525Z,22.60
2022-10-31T19:44:32.729Z,22.59
2022-10-31T19:47:38.670Z,22.44
2022-10-31T19:50:43.028Z,22.29
2022-10-31T19:53:48.017Z,22.42
2022-10-31T19:56:52.355Z,22.26
2022-10-31T19:59:56.689Z,22.31
2022-10-31T20:03:04.767Z,22.20
2022-10-31T20:06:14.784Z,22.14
2022-10-31T20:09:19.898Z,22.17
2022-10-31T20:12:24.195Z,22.08
2022-10-31T20:15:28.356Z,21.81
2022-10-31T20:18:36.845Z,21.95
2022-10-31T20:21:42.772Z,21.88
2022-10-31T20:24:46.855Z,21.97
2022-10-31T20:27:55.748Z,21.90
2022-10-31T20:31:00.166Z,21.78
2022-10-31T20:34:06.286Z,21.80
2022-10-31T20:37:14.736Z,21.65
2022-10-31T20:40:19.345Z,21.75
2022-10-31T20:43:23.645Z,21.63
2022-10-31T20:46:29.642Z,21.69
2022-10-31T20:49:42.491Z,21.68
2022-10-31T20:52:46.624Z,21.38
2022-10-31T20:55:50.905Z,21.39
2022-10-31T20:58:56.385Z,21.34
2022-10-31T21:02:02.615Z,21.37
2022-10-31T21:05:09.566Z,21.50
2022-10-31T21:08:13.915Z,21.28
2022-10-31T21:11:21.618Z,21.09
2022-10-31T21:14:25.955Z,21.19
2022-10-31T21:17:30.606Z,21.02
2022-10-31T21:20:36.816Z,20.99
2022-10-31T21:23:41.638Z,20.68
2022-10-31T21:26:50.784Z,20.52
2022-10-31T21:29:55.048Z,20.58
2022-10-31T21:32:59.296Z,20.65
2022-10-31T21:36:05.465Z,20.64
2022-10-31T21:39:10.579Z,20.62
2022-10-31T21:42:17.510Z,20.45
2022-10-31T21:45:25.437Z,20.65
2022-10-31T21:48:33.355Z,20.75
2022-10-31T21:51:43.342Z,20.58
2022-10-31T21:54:47.470Z,20.07
2022-10-31T21:57:51.745Z,20.09
2022-10-31T22:00:55.854Z,19.74
2022-10-31T22:04:00.696Z,19.61
2022-10-31T22:07:16.803Z,19.54
2022-10-31T22:10:20.926Z,19.59
2022-10-31T22:13:25.326Z,19.83
2022-10-31T22:16:31.238Z,20.13
2022-10-31T22:19:35.388Z,20.21
2022-10-31T22:22:41.146Z,19.97
2022-10-31T22:25:45.323Z,19.87
2022-10-31T22:28:53.645Z,19.81
2022-10-31T22:31:59.557Z,19.65
2022-10-31T22:35:06.249Z,19.76
2022-10-31T22:38:11.850Z,20.09
2022-10-31T22:41:17.738Z,19.96
2022-10-31T22:44:22.362Z,19.96
2022-10-31T22:47:26.648Z,19.98
2022-10-31T22:50:30.965Z,20.06
2022-10-31T22:53:38.731Z,19.56
2022-10-31T22:56:43.336Z,19.85
2022-10-31T22:59:47.559Z,19.88
2022-10-31T23:02:52.864Z,19.93
2022-10-31T23:05:58.259Z,19.67
2022-10-31T23:09:07.549Z,19.49
2022-10-31T23:12:31.171Z,19.92
2022-10-31T23:15:38.690Z,19.91
2022-10-31T23:18:50.165Z,20.03
2022-10-31T23:21:57.428Z,19.99
2022-10-31T23:25:04.333Z,19.83
2022-10-31T23:28:07.429Z,19.97
2022-10-31T23:31:11.604Z,20.02
2022-10-31T23:34:15.820Z,19.81
2022-10-31T23:37:21.675Z,19.62
2022-10-31T23:40:27.546Z,19.80
2022-10-31T23:43:31.582Z,19.82
2022-10-31T23:46:35.722Z,19.93
2022-10-31T23:49:40.114Z,19.93
2022-10-31T23:52:44.235Z,19.79
2022-10-31T23:55:49.780Z,19.77
2022-10-31T23:58:56.889Z,19.85
